createdAt,value
2018-07-30T00:00:33.744Z,101155.59
2018-07-30T00:03:44.433Z,101151.77
2018-07-30T00:06:48.830Z,101140.04
2018-07-30T00:09:53.246Z,101135.13
2018-07-30T00:12:58.185Z,101131.33
2018-07-30T00:16:03.539Z,101132.00
2018-07-30T00:19:56.702Z,101130.91
2018-07-30T00:23:02.416Z,101130.15
2018-07-30T00:26:08.634Z,101128.04
2018-07-30T00:29:28.740Z,101124.58
2018-07-30T00:32:33.212Z,101124.58
2018-07-30T00:35:38.908Z,101126.83
2018-07-30T00:38:47.828Z,101132.98
2018-07-30T00:41:55.186Z,101133.56
2018-07-30T00:45:05.020Z,101129.22
2018-07-30T00:48:18.951Z,101122.61
2018-07-30T00:51:24.877Z,101130.08
2018-07-30T00:54:33.370Z,101126.46
2018-07-30T00:57:42.393Z,101121.55
2018-07-30T01:00:54.426Z,101124.58
2018-07-30T01:04:06.378Z,101123.73
2018-07-30T01:07:13.070Z,101132.93
2018-07-30T01:10:19.062Z,101128.55
2018-07-30T01:13:24.409Z,101123.29
2018-07-30T01:16:31.008Z,101125.99
2018-07-30T01:19:36.734Z,101126.44
2018-07-30T01:22:42.112Z,101116.30
2018-07-30T01:25:49.593Z,101120.71
2018-07-30T01:29:18.560Z,101117.20
2018-07-30T01:32:25.036Z,101136.09
2018-07-30T01:36:03.875Z,101136.48
2018-07-30T01:42:49.789Z,101139.62
2018-07-30T01:46:44.244Z,101141.67
2018-07-30T01:53:05.192Z,101140.12
2018-07-30T01:56:10.697Z,101134.77
2018-07-30T01:59:18.427Z,101139.04
2018-07-30T02:02:22.858Z,101146.04
2018-07-30T02:05:27.344Z,101132.81
2018-07-30T02:08:35.934Z,101131.44
2018-07-30T02:11:43.524Z,101134.86
2018-07-30T02:14:56.090Z,101126.01
2018-07-30T02:18:00.604Z,101134.71
2018-07-30T02:21:05.115Z,101135.95
2018-07-30T02:24:10.915Z,101130.18
2018-07-30T02:27:18.548Z,101131.89
2018-07-30T02:30:27.764Z,101130.52
2018-07-30T02:33:47.994Z,101125.23
2018-07-30T02:36:53.539Z,101126.14
2018-07-30T02:39:58.651Z,101132.30
2018-07-30T02:43:03.198Z,101136.19
2018-07-30T02:46:07.771Z,101137.03
2018-07-30T02:49:12.465Z,101130.49
2018-07-30T02:52:16.998Z,101137.95
2018-07-30T02:55:22.068Z,101137.11
2018-07-30T02:58:27.289Z,101139.44
2018-07-30T03:01:33.017Z,101133.38
2018-07-30T03:04:41.221Z,101134.34
2018-07-30T03:07:46.216Z,101140.98
2018-07-30T03:14:12.288Z,101140.73
2018-07-30T03:17:37.049Z,101143.45
2018-07-30T03:20:53.235Z,101141.20
2018-07-30T03:24:29.396Z,101143.88
2018-07-30T03:31:48.286Z,101135.28
2018-07-30T03:42:49.460Z,101137.61
2018-07-30T03:45:53.986Z,101126.67
2018-07-30T03:49:12.870Z,101133.19
2018-07-30T03:52:17.379Z,101147.35
2018-07-30T03:55:22.374Z,101137.70
2018-07-30T03:58:27.714Z,101131.47
2018-07-30T04:01:35.142Z,101129.95
2018-07-30T04:04:46.562Z,101136.55
2018-07-30T04:11:25.588Z,101134.33
2018-07-30T04:14:30.645Z,101143.52
2018-07-30T04:17:35.605Z,101154.09
2018-07-30T04:20:40.019Z,101152.35
2018-07-30T04:23:44.369Z,101148.73
2018-07-30T04:26:49.243Z,101152.08
2018-07-30T04:29:53.877Z,101152.39
2018-07-30T04:32:58.404Z,101155.48
2018-07-30T04:36:06.265Z,101150.55
2018-07-30T04:39:15.249Z,101150.48
2018-07-30T04:42:19.971Z,101150.33
2018-07-30T04:45:38.947Z,101159.42
2018-07-30T04:49:15.796Z,101153.92
2018-07-30T04:52:20.165Z,101155.06
2018-07-30T04:55:24.605Z,101160.28
2018-07-30T04:58:29.437Z,101163.34
2018-07-30T05:05:17.672Z,101164.11
2018-07-30T05:15:01.996Z,101158.27
2018-07-30T05:18:11.733Z,101163.23
2018-07-30T05:21:16.171Z,101172.32
2018-07-30T05:24:24.208Z,101170.45
2018-07-30T05:27:37.635Z,101169.42
2018-07-30T05:31:00.649Z,101173.30
2018-07-30T05:34:15.076Z,101169.23
2018-07-30T05:37:20.258Z,101176.16
2018-07-30T05:43:38.381Z,101189.42
2018-07-30T05:46:59.327Z,101194.13
2018-07-30T05:50:05.590Z,101198.86
2018-07-30T05:53:10.314Z,101190.45
2018-07-30T05:56:15.079Z,101194.48
2018-07-30T05:59:19.816Z,101201.21
2018-07-30T06:02:25.686Z,101205.78
2018-07-30T06:05:30.518Z,101196.05
2018-07-30T06:08:35.198Z,101202.91
2018-07-30T06:11:41.001Z,101210.21
2018-07-30T06:14:45.383Z,101220.97
2018-07-30T06:17:49.721Z,101220.45
2018-07-30T06:20:55.042Z,101222.64
2018-07-30T06:23:59.436Z,101224.88
2018-07-30T06:27:03.720Z,101235.36
2018-07-30T06:30:08.542Z,101230.35
2018-07-30T06:33:12.908Z,101225.98
2018-07-30T06:36:17.338Z,101230.14
2018-07-30T06:39:21.722Z,101232.95
2018-07-30T06:42:26.116Z,101237.77
2018-07-30T06:45:30.518Z,101239.03
2018-07-30T06:48:34.801Z,101234.78
2018-07-30T06:51:39.182Z,101246.92
2018-07-30T06:54:43.497Z,101247.26
2018-07-30T06:57:47.885Z,101250.13
2018-07-30T07:00:52.276Z,101240.16
2018-07-30T07:03:56.595Z,101248.44
2018-07-30T07:07:00.950Z,101248.22
2018-07-30T07:10:07.360Z,101251.23
2018-07-30T07:13:11.592Z,101256.48
2018-07-30T07:16:15.964Z,101254.33
2018-07-30T07:19:20.274Z,101249.31
2018-07-30T07:22:24.620Z,101254.86
2018-07-30T07:25:28.967Z,101254.09
2018-07-30T07:28:33.982Z,101248.67
2018-07-30T07:31:38.611Z,101251.55
2018-07-30T07:34:43.100Z,101248.02
2018-07-30T07:37:47.503Z,101253.35
2018-07-30T07:40:52.781Z,101250.13
2018-07-30T07:43:58.230Z,101250.78
2018-07-30T07:50:19.533Z,101253.56
2018-07-30T07:53:24.001Z,101252.33
2018-07-30T07:56:28.631Z,101256.80
2018-07-30T07:59:33.913Z,101259.28
2018-07-30T08:02:39.006Z,101260.53
2018-07-30T08:05:43.323Z,101256.80
2018-07-30T08:08:47.626Z,101269.98
2018-07-30T08:11:52.128Z,101275.62
2018-07-30T08:14:56.938Z,101283.73
2018-07-30T08:18:01.481Z,101286.57
2018-07-30T08:21:06.188Z,101277.67
2018-07-30T08:24:11.048Z,101282.75
2018-07-30T08:27:15.682Z,101290.74
2018-07-30T08:30:20.216Z,101299.55
2018-07-30T08:33:24.661Z,101307.20
2018-07-30T08:36:29.234Z,101309.03
2018-07-30T08:39:33.677Z,101307.08
2018-07-30T08:42:38.025Z,101306.41
2018-07-30T08:45:42.550Z,101313.66
2018-07-30T08:48:46.996Z,101313.98
2018-07-30T08:51:51.613Z,101316.47
2018-07-30T08:54:56.711Z,101322.92
2018-07-30T08:58:01.371Z,101322.84
2018-07-30T09:01:05.684Z,101324.81
2018-07-30T09:04:10.528Z,101326.93
2018-07-30T09:07:15.359Z,101328.02
2018-07-30T09:10:20.141Z,101320.55
2018-07-30T09:13:24.622Z,101319.02
2018-07-30T09:16:29.245Z,101328.82
2018-07-30T09:19:35.123Z,101328.36
2018-07-30T09:22:39.955Z,101333.37
2018-07-30T09:25:44.642Z,101335.09
2018-07-30T09:28:49.603Z,101338.23
2018-07-30T09:31:54.438Z,101339.18
2018-07-30T09:34:58.947Z,101335.95
2018-07-30T09:38:03.480Z,101333.42
2018-07-30T09:41:08.193Z,101335.36
2018-07-30T09:44:12.620Z,101335.89
2018-07-30T09:47:17.631Z,101342.26
2018-07-30T09:50:22.150Z,101348.11
2018-07-30T09:53:26.553Z,101342.73
2018-07-30T09:56:30.829Z,101350.98
2018-07-30T09:59:35.265Z,101354.45
2018-07-30T10:02:39.684Z,101358.83
2018-07-30T10:05:43.971Z,101359.04
2018-07-30T10:08:48.264Z,101350.59
2018-07-30T10:11:52.640Z,101351.52
2018-07-30T10:14:57.200Z,101347.70
2018-07-30T10:18:01.620Z,101352.20
2018-07-30T10:21:06.332Z,101354.63
2018-07-30T10:24:10.706Z,101358.72
2018-07-30T10:27:15.087Z,101360.22
2018-07-30T10:30:19.384Z,101356.16
2018-07-30T10:33:23.721Z,101357.47
2018-07-30T10:36:28.047Z,101345.70
2018-07-30T10:39:32.427Z,101345.36
2018-07-30T10:42:37.013Z,101356.33
2018-07-30T10:45:41.353Z,101358.96
2018-07-30T10:48:45.999Z,101361.36
2018-07-30T10:51:50.308Z,101363.30
2018-07-30T10:54:54.829Z,101362.97
2018-07-30T10:57:59.358Z,101366.48
2018-07-30T11:01:03.922Z,101370.21
2018-07-30T11:04:08.804Z,101363.50
2018-07-30T11:07:13.211Z,101350.46
2018-07-30T11:10:17.862Z,101352.78
2018-07-30T11:13:22.294Z,101351.17
2018-07-30T11:16:26.946Z,101354.94
2018-07-30T11:19:31.272Z,101352.81
2018-07-30T11:22:35.721Z,101349.53
2018-07-30T11:25:40.191Z,101361.47
2018-07-30T11:28:44.812Z,101358.67
2018-07-30T11:31:49.551Z,101363.17
2018-07-30T11:34:53.924Z,101363.17
2018-07-30T11:37:58.558Z,101372.96
2018-07-30T11:41:02.705Z,101371.21
2018-07-30T11:44:07.711Z,101370.94
2018-07-30T11:47:12.215Z,101366.83
2018-07-30T11:50:16.868Z,101362.66
2018-07-30T11:53:21.713Z,101361.26
2018-07-30T11:56:26.418Z,101360.59
2018-07-30T11:59:31.296Z,101353.30
2018-07-30T12:02:35.588Z,101358.03
2018-07-30T12:05:39.938Z,101358.89
2018-07-30T12:08:44.836Z,101357.66
2018-07-30T12:11:49.644Z,101363.13
2018-07-30T12:14:53.920Z,101357.70
2018-07-30T12:17:58.469Z,101361.64
2018-07-30T12:21:03.867Z,101360.47
2018-07-30T12:24:08.349Z,101361.42
2018-07-30T12:27:12.841Z,101361.66
2018-07-30T12:30:17.177Z,101359.83
2018-07-30T12:33:24.579Z,101346.93
2018-07-30T12:36:31.968Z,101354.17
2018-07-30T12:39:36.296Z,101348.41
2018-07-30T12:42:40.677Z,101351.56
2018-07-30T12:45:47.202Z,101351.08
2018-07-30T12:48:51.613Z,101345.89
2018-07-30T12:51:56.041Z,101348.24
2018-07-30T12:55:00.462Z,101340.34
2018-07-30T12:58:05.525Z,101344.80
2018-07-30T13:01:10.108Z,101352.81
2018-07-30T13:07:29.334Z,101355.59
2018-07-30T13:10:33.794Z,101357.45
2018-07-30T13:13:38.189Z,101347.45
2018-07-30T13:16:42.616Z,101345.42
2018-07-30T13:19:47.034Z,101341.95
2018-07-30T13:23:02.527Z,101348.31
2018-07-30T13:26:08.739Z,101348.31
2018-07-30T13:29:13.874Z,101341.09
2018-07-30T13:32:18.537Z,101345.08
2018-07-30T13:35:24.073Z,101345.97
2018-07-30T13:38:29.301Z,101344.48
2018-07-30T13:41:33.677Z,101341.73
2018-07-30T13:44:38.318Z,101342.83
2018-07-30T13:47:42.859Z,101340.30
2018-07-30T13:50:47.293Z,101339.06
2018-07-30T13:53:52.251Z,101337.48
2018-07-30T13:56:57.265Z,101347.28
2018-07-30T14:00:01.546Z,101345.03
2018-07-30T14:03:06.367Z,101351.19
2018-07-30T14:06:10.848Z,101350.13
2018-07-30T14:09:15.125Z,101352.53
2018-07-30T14:12:19.577Z,101342.98
2018-07-30T14:15:23.880Z,101348.05
2018-07-30T14:18:28.221Z,101338.86
2018-07-30T14:21:32.546Z,101343.39
2018-07-30T14:24:37.016Z,101336.66
2018-07-30T14:27:41.532Z,101334.87
2018-07-30T14:30:45.917Z,101336.11
2018-07-30T14:33:50.263Z,101334.25
2018-07-30T14:36:54.665Z,101333.02
2018-07-30T14:40:05.575Z,101334.23
2018-07-30T14:43:09.993Z,101333.70
2018-07-30T14:49:43.116Z,101332.36
2018-07-30T14:52:47.818Z,101332.36
2018-07-30T14:55:52.680Z,101331.72
2018-07-30T14:58:57.085Z,101330.11
2018-07-30T15:02:01.494Z,101335.95
2018-07-30T15:05:05.984Z,101336.86
2018-07-30T15:08:10.344Z,101338.33
2018-07-30T15:11:14.888Z,101343.22
2018-07-30T15:14:19.368Z,101337.16
2018-07-30T15:17:23.962Z,101333.94
2018-07-30T15:20:28.348Z,101335.27
2018-07-30T15:23:32.784Z,101338.17
2018-07-30T15:26:37.197Z,101333.62
2018-07-30T15:29:41.462Z,101330.45
2018-07-30T15:32:45.830Z,101339.44
2018-07-30T15:35:50.221Z,101335.75
2018-07-30T15:38:54.585Z,101327.41
2018-07-30T15:41:59.004Z,101330.14
2018-07-30T15:45:03.503Z,101332.27
2018-07-30T15:48:09.084Z,101336.29
2018-07-30T15:51:13.454Z,101331.64
2018-07-30T15:54:17.893Z,101329.83
2018-07-30T15:57:22.213Z,101333.99
2018-07-30T16:00:26.516Z,101331.56
2018-07-30T16:03:31.583Z,101328.81
2018-07-30T16:06:37.520Z,101331.32
2018-07-30T16:09:41.989Z,101334.64
2018-07-30T16:12:46.395Z,101334.31
2018-07-30T16:15:50.839Z,101326.38
2018-07-30T16:18:55.744Z,101328.48
2018-07-30T16:22:00.598Z,101326.52
2018-07-30T16:25:05.653Z,101330.10
2018-07-30T16:28:09.931Z,101329.25
2018-07-30T16:31:14.297Z,101319.56
2018-07-30T16:34:18.653Z,101320.94
2018-07-30T16:37:23.074Z,101331.27
2018-07-30T16:40:27.464Z,101330.23
2018-07-30T16:43:31.785Z,101331.65
2018-07-30T16:46:36.137Z,101327.74
2018-07-30T16:49:40.452Z,101335.30
2018-07-30T16:52:44.748Z,101335.09
2018-07-30T16:55:49.631Z,101334.70
2018-07-30T16:58:54.039Z,101330.74
2018-07-30T17:01:58.427Z,101334.63
2018-07-30T17:05:02.792Z,101331.39
2018-07-30T17:08:07.936Z,101327.27
2018-07-30T17:11:12.556Z,101333.23
2018-07-30T17:14:16.915Z,101328.91
2018-07-30T17:17:21.204Z,101328.95
2018-07-30T17:20:25.851Z,101330.15
2018-07-30T17:23:31.557Z,101327.66
2018-07-30T17:26:35.905Z,101332.59
2018-07-30T17:29:40.293Z,101336.66
2018-07-30T17:32:44.662Z,101336.42
2018-07-30T17:35:49.145Z,101337.42
2018-07-30T17:38:53.523Z,101341.34
2018-07-30T17:41:57.894Z,101343.63
2018-07-30T17:45:02.292Z,101340.62
2018-07-30T17:48:07.213Z,101343.30
2018-07-30T17:51:11.788Z,101341.77
2018-07-30T17:54:16.168Z,101341.09
2018-07-30T17:57:20.535Z,101340.02
2018-07-30T18:00:24.881Z,101342.16
2018-07-30T18:03:29.261Z,101332.09
2018-07-30T18:06:33.638Z,101334.87
2018-07-30T18:09:37.991Z,101336.96
2018-07-30T18:12:42.136Z,101338.27
2018-07-30T18:15:46.460Z,101342.16
2018-07-30T18:18:50.775Z,101345.08
2018-07-30T18:21:55.167Z,101342.16
2018-07-30T18:24:59.539Z,101345.74
2018-07-30T18:28:03.960Z,101341.02
2018-07-30T18:31:08.599Z,101340.54
2018-07-30T18:34:12.986Z,101338.16
2018-07-30T18:37:17.387Z,101342.34
2018-07-30T18:40:21.848Z,101341.28
2018-07-30T18:43:26.213Z,101341.52
2018-07-30T18:46:30.647Z,101346.38
2018-07-30T18:49:34.933Z,101345.87
2018-07-30T18:52:39.738Z,101350.00
2018-07-30T18:55:44.124Z,101355.12
2018-07-30T18:58:48.560Z,101354.05
2018-07-30T19:01:52.944Z,101350.91
2018-07-30T19:04:57.396Z,101354.72
2018-07-30T19:08:01.700Z,101364.63
2018-07-30T19:11:06.073Z,101360.41
2018-07-30T19:14:11.011Z,101360.96
2018-07-30T19:17:15.429Z,101360.61
2018-07-30T19:20:19.971Z,101366.09
2018-07-30T19:23:24.300Z,101363.04
2018-07-30T19:26:28.620Z,101378.21
2018-07-30T19:29:32.796Z,101369.27
2018-07-30T19:32:37.129Z,101378.41
2018-07-30T19:35:41.971Z,101376.37
2018-07-30T19:38:46.413Z,101384.56
2018-07-30T19:41:50.736Z,101383.41
2018-07-30T19:44:55.273Z,101384.81
2018-07-30T19:47:59.915Z,101384.75
2018-07-30T19:51:08.508Z,101381.77
2018-07-30T19:54:13.910Z,101386.76
2018-07-30T19:57:18.689Z,101383.80
2018-07-30T20:00:23.269Z,101375.36
2018-07-30T20:03:27.687Z,101377.84
2018-07-30T20:06:32.631Z,101377.11
2018-07-30T20:09:37.787Z,101379.59
2018-07-30T20:12:56.172Z,101379.87
2018-07-30T20:16:16.659Z,101379.15
2018-07-30T20:19:22.004Z,101380.08
2018-07-30T20:22:30.018Z,101381.18
2018-07-30T20:25:36.439Z,101389.39
2018-07-30T20:28:42.056Z,101383.25
2018-07-30T20:38:07.856Z,101384.21
2018-07-30T20:41:25.036Z,101385.50
2018-07-30T20:44:29.929Z,101382.11
2018-07-30T20:47:34.249Z,101391.88
2018-07-30T20:50:38.677Z,101390.98
2018-07-30T20:53:42.967Z,101388.38
2018-07-30T20:56:47.268Z,101399.11
2018-07-30T20:59:51.684Z,101397.13
2018-07-30T21:02:57.082Z,101396.73
2018-07-30T21:06:01.450Z,101406.65
2018-07-30T21:09:09.877Z,101402.78
2018-07-30T21:12:15.142Z,101403.87
2018-07-30T21:15:20.469Z,101403.87
2018-07-30T21:18:26.226Z,101402.60
2018-07-30T21:21:32.503Z,101403.47
2018-07-30T21:24:38.870Z,101404.88
2018-07-30T21:27:44.882Z,101398.73
2018-07-30T21:30:51.709Z,101396.55
2018-07-30T21:33:57.776Z,101392.20
2018-07-30T21:37:03.333Z,101386.45
2018-07-30T21:40:08.900Z,101391.36
2018-07-30T21:43:14.121Z,101388.36
2018-07-30T21:46:19.803Z,101385.91
2018-07-30T21:49:25.273Z,101384.22
2018-07-30T21:52:29.796Z,101386.88
2018-07-30T21:55:34.316Z,101387.80
2018-07-30T21:58:39.488Z,101387.39
2018-07-30T22:01:45.002Z,101391.03
2018-07-30T22:04:50.731Z,101396.36
2018-07-30T22:07:55.855Z,101387.66
2018-07-30T22:11:01.118Z,101389.50
2018-07-30T22:14:05.726Z,101387.77
2018-07-30T22:17:10.059Z,101388.17
2018-07-30T22:20:14.465Z,101387.77
2018-07-30T22:23:18.759Z,101389.52
2018-07-30T22:26:23.186Z,101382.46
2018-07-30T22:29:27.589Z,101378.42
2018-07-30T22:32:32.568Z,101373.58
2018-07-30T22:35:37.106Z,101373.66
2018-07-30T22:38:41.731Z,101374.61
2018-07-30T22:41:46.130Z,101368.45
2018-07-30T22:44:50.545Z,101360.14
2018-07-30T22:47:54.947Z,101358.78
2018-07-30T22:50:59.493Z,101358.44
2018-07-30T22:54:03.849Z,101372.16
2018-07-30T22:57:08.309Z,101368.64
2018-07-30T23:00:12.633Z,101367.14
2018-07-30T23:03:17.003Z,101368.45
2018-07-30T23:06:21.309Z,101368.87
2018-07-30T23:09:25.615Z,101370.27
2018-07-30T23:12:32.248Z,101366.77
2018-07-30T23:15:36.583Z,101365.81
2018-07-30T23:18:41.588Z,101368.19
2018-07-30T23:21:46.412Z,101357.95
2018-07-30T23:24:50.825Z,101361.81
2018-07-30T23:27:55.378Z,101360.22
2018-07-30T23:30:59.808Z,101354.86
2018-07-30T23:34:06.581Z,101350.94
2018-07-30T23:37:11.044Z,101347.10
2018-07-30T23:40:15.678Z,101351.98
2018-07-30T23:43:27.613Z,101346.78
2018-07-30T23:46:31.985Z,101338.39
2018-07-30T23:49:36.396Z,101341.63
2018-07-30T23:52:40.747Z,101340.47
2018-07-30T23:55:45.168Z,101332.51
2018-07-30T23:58:49.560Z,101336.95
